sensor_id;sensor_type;location;lat;lon;timestamp;pressure;altitude;pressure_sealevel;temperature;humidity
60345;BME280;46188;52.324;8.032;2023-03-02T00:01:42;101453.31;;;-1.14;100.00
60345;BME280;46188;52.324;8.032;2023-03-02T00:04:13;101451.06;;;-1.09;100.00
60345;BME280;46188;52.324;8.032;2023-03-02T00:06:40;101451.97;;;-1.09;100.00
60345;BME280;46188;52.324;8.032;2023-03-02T00:09:05;101446.34;;;-1.03;100.00
60345;BME280;46188;52.324;8.032;2023-03-02T00:11:33;101438.91;;;-0.99;100.00
60345;BME280;46188;52.324;8.032;2023-03-02T00:13:59;101447.34;;;-1.01;100.00
60345;BME280;46188;52.324;8.032;2023-03-02T00:16:25;101446.34;;;-1.03;100.00
60345;BME280;46188;52.324;8.032;2023-03-02T00:18:50;101445.31;;;-0.94;100.00
60345;BME280;46188;52.324;8.032;2023-03-02T00:21:16;101432.72;;;-0.89;100.00
60345;BME280;46188;52.324;8.032;2023-03-02T00:23:41;101433.28;;;-0.93;100.00
60345;BME280;46188;52.324;8.032;2023-03-02T00:26:07;101437.09;;;-0.88;100.00
60345;BME280;46188;52.324;8.032;2023-03-02T00:28:33;101434.50;;;-0.88;100.00
60345;BME280;46188;52.324;8.032;2023-03-02T00:30:59;101431.59;;;-0.93;100.00
60345;BME280;46188;52.324;8.032;2023-03-02T00:33:24;101436.66;;;-0.94;100.00
60345;BME280;46188;52.324;8.032;2023-03-02T00:35:50;101430.56;;;-0.95;100.00
60345;BME280;46188;52.324;8.032;2023-03-02T00:38:15;101437.22;;;-0.98;100.00
60345;BME280;46188;52.324;8.032;2023-03-02T00:40:45;101423.28;;;-1.00;100.00
60345;BME280;46188;52.324;8.032;2023-03-02T00:43:11;101428.34;;;-1.02;100.00
60345;BME280;46188;52.324;8.032;2023-03-02T00:45:37;101434.41;;;-1.01;100.00
60345;BME280;46188;52.324;8.032;2023-03-02T00:48:02;101426.75;;;-1.00;100.00
60345;BME280;46188;52.324;8.032;2023-03-02T00:50:28;101438.22;;;-0.96;100.00
60345;BME280;46188;52.324;8.032;2023-03-02T00:52:53;101437.56;;;-0.94;100.00
60345;BME280;46188;52.324;8.032;2023-03-02T00:55:19;101441.63;;;-0.97;100.00
60345;BME280;46188;52.324;8.032;2023-03-02T00:57:44;101437.56;;;-1.05;100.00
60345;BME280;46188;52.324;8.032;2023-03-02T01:00:22;101445.44;;;-0.92;100.00
60345;BME280;46188;52.324;8.032;2023-03-02T01:02:48;101441.59;;;-0.85;100.00
60345;BME280;46188;52.324;8.032;2023-03-02T01:05:14;101443.16;;;-0.76;100.00
60345;BME280;46188;52.324;8.032;2023-03-02T01:07:40;101442.16;;;-0.78;100.00
60345;BME280;46188;52.324;8.032;2023-03-02T01:10:06;101445.06;;;-0.73;100.00
60345;BME280;46188;52.324;8.032;2023-03-02T01:12:31;101443.59;;;-0.81;100.00
60345;BME280;46188;52.324;8.032;2023-03-02T01:14:57;101441.25;;;-0.78;100.00
60345;BME280;46188;52.324;8.032;2023-03-02T01:17:22;101441.13;;;-0.68;100.00
60345;BME280;46188;52.324;8.032;2023-03-02T01:19:49;101437.75;;;-0.67;100.00
60345;BME280;46188;52.324;8.032;2023-03-02T01:22:15;101435.50;;;-0.62;100.00
60345;BME280;46188;52.324;8.032;2023-03-02T01:24:41;101434.78;;;-0.60;100.00
60345;BME280;46188;52.324;8.032;2023-03-02T01:27:06;101437.94;;;-0.52;100.00
60345;BME280;46188;52.324;8.032;2023-03-02T01:29:32;101431.16;;;-0.50;100.00
60345;BME280;46188;52.324;8.032;2023-03-02T01:31:57;101438.38;;;-0.46;100.00
60345;BME280;46188;52.324;8.032;2023-03-02T01:34:22;101439.38;;;-0.44;100.00
60345;BME280;46188;52.324;8.032;2023-03-02T01:36:48;101439.00;;;-0.37;100.00
60345;BME280;46188;52.324;8.032;2023-03-02T01:39:14;101436.13;;;-0.41;100.00
60345;BME280;46188;52.324;8.032;2023-03-02T01:41:44;101432.06;;;-0.38;100.00
60345;BME280;46188;52.324;8.032;2023-03-02T01:47:15;101423.69;;;-0.33;100.00
60345;BME280;46188;52.324;8.032;2023-03-02T01:49:46;101423.13;;;-0.29;100.00
60345;BME280;46188;52.324;8.032;2023-03-02T01:52:13;101430.69;;;-0.32;100.00
60345;BME280;46188;52.324;8.032;2023-03-02T01:54:40;101421.31;;;-0.30;100.00
60345;BME280;46188;52.324;8.032;2023-03-02T01:57:07;101420.53;;;-0.29;100.00
60345;BME280;46188;52.324;8.032;2023-03-02T01:59:35;101413.97;;;-0.24;100.00
60345;BME280;46188;52.324;8.032;2023-03-02T02:02:04;101407.59;;;-0.29;100.00
60345;BME280;46188;52.324;8.032;2023-03-02T02:04:31;101410.44;;;-0.38;100.00
60345;BME280;46188;52.324;8.032;2023-03-02T02:07:04;101412.09;;;-0.39;100.00
60345;BME280;46188;52.324;8.032;2023-03-02T02:09:33;101416.66;;;-0.48;100.00
60345;BME280;46188;52.324;8.032;2023-03-02T02:12:01;101409.44;;;-0.52;100.00
60345;BME280;46188;52.324;8.032;2023-03-02T02:14:26;101410.03;;;-0.56;100.00
60345;BME280;46188;52.324;8.032;2023-03-02T02:16:52;101402.56;;;-0.51;100.00
60345;BME280;46188;52.324;8.032;2023-03-02T02:19:39;101401.22;;;-0.58;100.00
60345;BME280;46188;52.324;8.032;2023-03-02T02:22:09;101391.00;;;-0.57;100.00
60345;BME280;46188;52.324;8.032;2023-03-02T02:24:43;101396.13;;;-0.45;100.00
60345;BME280;46188;52.324;8.032;2023-03-02T02:27:11;101392.13;;;-0.53;100.00
60345;BME280;46188;52.324;8.032;2023-03-02T02:29:40;101389.09;;;-0.59;100.00
60345;BME280;46188;52.324;8.032;2023-03-02T02:32:23;101394.28;;;-0.59;100.00
60345;BME280;46188;52.324;8.032;2023-03-02T02:35:10;101390.44;;;-0.52;100.00
60345;BME280;46188;52.324;8.032;2023-03-02T02:37:41;101397.38;;;-0.40;100.00
60345;BME280;46188;52.324;8.032;2023-03-02T02:40:14;101395.34;;;-0.44;100.00
60345;BME280;46188;52.324;8.032;2023-03-02T02:42:47;101397.81;;;-0.45;100.00
60345;BME280;46188;52.324;8.032;2023-03-02T02:45:22;101395.94;;;-0.48;100.00
60345;BME280;46188;52.324;8.032;2023-03-02T02:47:49;101391.31;;;-0.52;100.00
60345;BME280;46188;52.324;8.032;2023-03-02T02:50:18;101388.94;;;-0.49;100.00
60345;BME280;46188;52.324;8.032;2023-03-02T02:52:46;101385.81;;;-0.57;100.00
60345;BME280;46188;52.324;8.032;2023-03-02T02:55:15;101388.28;;;-0.58;100.00
60345;BME280;46188;52.324;8.032;2023-03-02T02:57:44;101383.69;;;-0.62;100.00
60345;BME280;46188;52.324;8.032;2023-03-02T03:00:16;101383.31;;;-0.55;100.00
60345;BME280;46188;52.324;8.032;2023-03-02T03:02:44;101385.91;;;-0.55;100.00
60345;BME280;46188;52.324;8.032;2023-03-02T03:05:15;101380.41;;;-0.48;100.00
60345;BME280;46188;52.324;8.032;2023-03-02T03:07:40;101394.78;;;-0.51;100.00
60345;BME280;46188;52.324;8.032;2023-03-02T03:10:28;101392.13;;;-0.53;100.00
60345;BME280;46188;52.324;8.032;2023-03-02T03:12:59;101385.81;;;-0.57;100.00
60345;BME280;46188;52.324;8.032;2023-03-02T03:15:24;101385.34;;;-0.51;100.00
60345;BME280;46188;52.324;8.032;2023-03-02T03:17:57;101386.78;;;-0.43;100.00
60345;BME280;46188;52.324;8.032;2023-03-02T03:20:24;101388.78;;;-0.39;100.00
60345;BME280;46188;52.324;8.032;2023-03-02T03:22:50;101387.56;;;-0.44;100.00
60345;BME280;46188;52.324;8.032;2023-03-02T03:25:18;101378.38;;;-0.52;100.00
60345;BME280;46188;52.324;8.032;2023-03-02T03:27:44;101382.59;;;-0.41;100.00
60345;BME280;46188;52.324;8.032;2023-03-02T03:30:11;101379.53;;;-0.35;100.00
60345;BME280;46188;52.324;8.032;2023-03-02T03:32:37;101389.72;;;-0.38;100.00
60345;BME280;46188;52.324;8.032;2023-03-02T03:35:02;101389.91;;;-0.35;100.00
60345;BME280;46188;52.324;8.032;2023-03-02T03:37:33;101385.31;;;-0.39;100.00
60345;BME280;46188;52.324;8.032;2023-03-02T03:39:58;101379.81;;;-0.44;100.00
60345;BME280;46188;52.324;8.032;2023-03-02T03:42:24;101377.91;;;-0.46;100.00
60345;BME280;46188;52.324;8.032;2023-03-02T03:44:49;101383.16;;;-0.45;100.00
60345;BME280;46188;52.324;8.032;2023-03-02T03:47:15;101381.63;;;-0.43;100.00
60345;BME280;46188;52.324;8.032;2023-03-02T03:49:40;101384.59;;;-0.37;100.00
60345;BME280;46188;52.324;8.032;2023-03-02T03:52:05;101386.41;;;-0.35;100.00
60345;BME280;46188;52.324;8.032;2023-03-02T03:54:31;101392.38;;;-0.37;100.00
60345;BME280;46188;52.324;8.032;2023-03-02T03:56:56;101394.63;;;-0.29;100.00
60345;BME280;46188;52.324;8.032;2023-03-02T03:59:23;101390.56;;;-0.26;100.00
60345;BME280;46188;52.324;8.032;2023-03-02T04:01:54;101394.63;;;-0.29;100.00
60345;BME280;46188;52.324;8.032;2023-03-02T04:04:32;101394.03;;;-0.25;100.00
60345;BME280;46188;52.324;8.032;2023-03-02T04:06:58;101399.66;;;-0.19;100.00
60345;BME280;46188;52.324;8.032;2023-03-02T04:09:24;101400.44;;;-0.20;100.00
60345;BME280;46188;52.324;8.032;2023-03-02T04:11:51;101400.03;;;-0.26;100.00
60345;BME280;46188;52.324;8.032;2023-03-02T04:14:18;101399.47;;;-0.34;100.00
60345;BME280;46188;52.324;8.032;2023-03-02T04:16:44;101404.78;;;-0.32;100.00
60345;BME280;46188;52.324;8.032;2023-03-02T04:19:11;101406.59;;;-0.31;100.00
60345;BME280;46188;52.324;8.032;2023-03-02T04:21:39;101400.47;;;-0.32;100.00
60345;BME280;46188;52.324;8.032;2023-03-02T04:24:05;101404.88;;;-0.31;100.00
60345;BME280;46188;52.324;8.032;2023-03-02T04:26:31;101401.81;;;-0.25;100.00
60345;BME280;46188;52.324;8.032;2023-03-02T04:28:57;101397.84;;;-0.20;100.00
60345;BME280;46188;52.324;8.032;2023-03-02T04:31:22;101399.31;;;-0.24;100.00
60345;BME280;46188;52.324;8.032;2023-03-02T04:33:48;101394.94;;;-0.25;100.00
60345;BME280;46188;52.324;8.032;2023-03-02T04:36:13;101390.75;;;-0.23;100.00
60345;BME280;46188;52.324;8.032;2023-03-02T04:38:39;101392.59;;;-0.33;100.00
60345;BME280;46188;52.324;8.032;2023-03-02T04:41:04;101395.06;;;-0.35;100.00
60345;BME280;46188;52.324;8.032;2023-03-02T04:43:30;101390.81;;;-0.34;100.00
60345;BME280;46188;52.324;8.032;2023-03-02T04:45:56;101388.22;;;-0.34;100.00
60345;BME280;46188;52.324;8.032;2023-03-02T04:48:22;101385.94;;;-0.30;100.00
60345;BME280;46188;52.324;8.032;2023-03-02T04:50:47;101389.59;;;-0.40;100.00
60345;BME280;46188;52.324;8.032;2023-03-02T04:53:13;101390.38;;;-0.41;100.00
60345;BME280;46188;52.324;8.032;2023-03-02T04:55:39;101387.31;;;-0.35;100.00
60345;BME280;46188;52.324;8.032;2023-03-02T04:58:05;101386.41;;;-0.35;100.00
60345;BME280;46188;52.324;8.032;2023-03-02T05:00:31;101380.25;;;-0.38;100.00
60345;BME280;46188;52.324;8.032;2023-03-02T05:02:59;101377.06;;;-0.33;100.00
60345;BME280;46188;52.324;8.032;2023-03-02T05:05:24;101369.88;;;-0.38;100.00
60345;BME280;46188;52.324;8.032;2023-03-02T05:07:50;101370.97;;;-0.34;100.00
60345;BME280;46188;52.324;8.032;2023-03-02T05:10:17;101370.38;;;-0.30;100.00
60345;BME280;46188;52.324;8.032;2023-03-02T05:12:43;101357.03;;;-0.36;100.00
60345;BME280;46188;52.324;8.032;2023-03-02T05:15:40;101369.59;;;-0.29;100.00
60345;BME280;46188;52.324;8.032;2023-03-02T05:18:08;101367.63;;;-0.33;100.00
60345;BME280;46188;52.324;8.032;2023-03-02T05:20:34;101368.72;;;-0.29;100.00
60345;BME280;46188;52.324;8.032;2023-03-02T05:23:02;101370.31;;;-0.31;100.00
60345;BME280;46188;52.324;8.032;2023-03-02T05:25:30;101371.66;;;-0.37;100.00
60345;BME280;46188;52.324;8.032;2023-03-02T05:27:56;101374.56;;;-0.32;100.00
60345;BME280;46188;52.324;8.032;2023-03-02T05:30:22;101370.50;;;-0.28;100.00
60345;BME280;46188;52.324;8.032;2023-03-02T05:32:49;101373.91;;;-0.29;100.00
60345;BME280;46188;52.324;8.032;2023-03-02T05:35:15;101367.72;;;-0.31;100.00
60345;BME280;46188;52.324;8.032;2023-03-02T05:37:41;101371.47;;;-0.40;100.00
60345;BME280;46188;52.324;8.032;2023-03-02T05:40:13;101369.06;;;-0.37;100.00
60345;BME280;46188;52.324;8.032;2023-03-02T05:42:40;101372.41;;;-0.26;100.00
60345;BME280;46188;52.324;8.032;2023-03-02T05:45:08;101374.78;;;-0.29;100.00
60345;BME280;46188;52.324;8.032;2023-03-02T05:47:33;101377.59;;;-0.26;100.00
60345;BME280;46188;52.324;8.032;2023-03-02T05:49:59;101370.72;;;-0.25;100.00
60345;BME280;46188;52.324;8.032;2023-03-02T05:52:25;101371.53;;;-0.26;100.00
60345;BME280;46188;52.324;8.032;2023-03-02T05:54:50;101373.41;;;-0.24;100.00
60345;BME280;46188;52.324;8.032;2023-03-02T05:57:16;101378.44;;;-0.39;100.00
60345;BME280;46188;52.324;8.032;2023-03-02T05:59:41;101377.97;;;-0.33;100.00
60345;BME280;46188;52.324;8.032;2023-03-02T06:02:07;101387.84;;;-0.27;100.00
60345;BME280;46188;52.324;8.032;2023-03-02T06:04:32;101379.53;;;-0.35;100.00
60345;BME280;46188;52.324;8.032;2023-03-02T06:06:58;101385.63;;;-0.34;100.00
60345;BME280;46188;52.324;8.032;2023-03-02T06:09:23;101388.44;;;-0.31;100.00
60345;BME280;46188;52.324;8.032;2023-03-02T06:11:48;101391.59;;;-0.35;100.00
60345;BME280;46188;52.324;8.032;2023-03-02T06:14:14;101389.50;;;-0.41;100.00
60345;BME280;46188;52.324;8.032;2023-03-02T06:16:39;101392.09;;;-0.41;100.00
60345;BME280;46188;52.324;8.032;2023-03-02T06:19:05;101400.78;;;-0.52;100.00
60345;BME280;46188;52.324;8.032;2023-03-02T06:21:30;101396.28;;;-0.55;100.00
60345;BME280;46188;52.324;8.032;2023-03-02T06:23:56;101391.09;;;-0.55;100.00
60345;BME280;46188;52.324;8.032;2023-03-02T06:26:21;101398.34;;;-0.63;100.00
60345;BME280;46188;52.324;8.032;2023-03-02T06:28:47;101402.81;;;-0.60;100.00
60345;BME280;46188;52.324;8.032;2023-03-02T06:31:12;101396.38;;;-0.53;100.00
60345;BME280;46188;52.324;8.032;2023-03-02T06:33:37;101406.84;;;-0.52;100.00
60345;BME280;46188;52.324;8.032;2023-03-02T06:36:03;101401.13;;;-0.48;100.00
60345;BME280;46188;52.324;8.032;2023-03-02T06:38:29;101406.84;;;-0.52;100.00
60345;BME280;46188;52.324;8.032;2023-03-02T06:40:54;101417.44;;;-0.49;100.00
60345;BME280;46188;52.324;8.032;2023-03-02T06:43:19;101415.63;;;-0.50;100.00
60345;BME280;46188;52.324;8.032;2023-03-02T06:45:45;101414.38;;;-0.43;100.00
60345;BME280;46188;52.324;8.032;2023-03-02T06:48:10;101414.47;;;-0.42;100.00
60345;BME280;46188;52.324;8.032;2023-03-02T06:50:36;101414.03;;;-0.36;100.00
60345;BME280;46188;52.324;8.032;2023-03-02T06:53:03;101417.06;;;-0.42;100.00
60345;BME280;46188;52.324;8.032;2023-03-02T06:55:28;101417.13;;;-0.28;100.00
60345;BME280;46188;52.324;8.032;2023-03-02T06:57:54;101416.56;;;-0.24;100.00
60345;BME280;46188;52.324;8.032;2023-03-02T07:00:19;101419.75;;;-0.40;100.00
60345;BME280;46188;52.324;8.032;2023-03-02T07:02:51;101407.25;;;-0.34;100.00
60345;BME280;46188;52.324;8.032;2023-03-02T07:05:17;101413.69;;;-0.41;100.00
60345;BME280;46188;52.324;8.032;2023-03-02T07:07:43;101414.47;;;-0.42;100.00
60345;BME280;46188;52.324;8.032;2023-03-02T07:10:09;101414.03;;;-0.36;100.00
60345;BME280;46188;52.324;8.032;2023-03-02T07:12:36;101416.84;;;-0.33;100.00
60345;BME280;46188;52.324;8.032;2023-03-02T07:15:01;101418.06;;;-0.28;100.00
60345;BME280;46188;52.324;8.032;2023-03-02T07:17:28;101418.28;;;-0.25;100.00
60345;BME280;46188;52.324;8.032;2023-03-02T07:19:53;101409.22;;;-0.18;100.00
60345;BME280;46188;52.324;8.032;2023-03-02T07:22:19;101416.09;;;-0.19;100.00
60345;BME280;46188;52.324;8.032;2023-03-02T07:24:44;101410.69;;;-0.22;100.00
60345;BME280;46188;52.324;8.032;2023-03-02T07:27:09;101411.50;;;-0.23;100.00
60345;BME280;46188;52.324;8.032;2023-03-02T07:29:35;101410.34;;;-0.14;100.00
60345;BME280;46188;52.324;8.032;2023-03-02T07:32:00;101412.31;;;-0.10;100.00
60345;BME280;46188;52.324;8.032;2023-03-02T07:34:26;101409.16;;;-0.06;100.00
60345;BME280;46188;52.324;8.032;2023-03-02T07:36:52;101400.91;;;-0.01;100.00
60345;BME280;46188;52.324;8.032;2023-03-02T07:39:18;101396.94;;;0.05;100.00
60345;BME280;46188;52.324;8.032;2023-03-02T07:41:44;101391.06;;;0.07;100.00
60345;BME280;46188;52.324;8.032;2023-03-02T07:44:10;101390.56;;;0.13;100.00
60345;BME280;46188;52.324;8.032;2023-03-02T07:46:35;101400.94;;;0.13;100.00
60345;BME280;46188;52.324;8.032;2023-03-02T07:49:01;101396.19;;;0.19;100.00
60345;BME280;46188;52.324;8.032;2023-03-02T07:51:26;101397.69;;;0.29;100.00
60345;BME280;46188;52.324;8.032;2023-03-02T07:53:52;101391.53;;;0.40;100.00
60345;BME280;46188;52.324;8.032;2023-03-02T07:56:17;101397.03;;;0.45;100.00
60345;BME280;46188;52.324;8.032;2023-03-02T07:58:45;101397.00;;;0.31;100.00
60345;BME280;46188;52.324;8.032;2023-03-02T08:01:10;101407.19;;;0.28;100.00
60345;BME280;46188;52.324;8.032;2023-03-02T08:03:36;101407.06;;;0.13;100.00
60345;BME280;46188;52.324;8.032;2023-03-02T08:06:06;101401.59;;;0.22;100.00
60345;BME280;46188;52.324;8.032;2023-03-02T08:08:32;101397.28;;;0.23;100.00
60345;BME280;46188;52.324;8.032;2023-03-02T08:11:10;101402.88;;;0.29;100.00
60345;BME280;46188;52.324;8.032;2023-03-02T08:13:36;101393.94;;;0.37;100.00
60345;BME280;46188;52.324;8.032;2023-03-02T08:16:03;101402.91;;;0.42;100.00
60345;BME280;46188;52.324;8.032;2023-03-02T08:18:29;101393.44;;;0.43;100.00
60345;BME280;46188;52.324;8.032;2023-03-02T08:20:55;101396.72;;;0.40;100.00
60345;BME280;46188;52.324;8.032;2023-03-02T08:23:21;101398.94;;;0.47;100.00
60345;BME280;46188;52.324;8.032;2023-03-02T08:25:47;101404.00;;;0.46;100.00
60345;BME280;46188;52.324;8.032;2023-03-02T08:28:13;101401.72;;;0.50;100.00
60345;BME280;46188;52.324;8.032;2023-03-02T08:30:38;101394.47;;;0.58;100.00
60345;BME280;46188;52.324;8.032;2023-03-02T08:33:04;101393.34;;;0.68;100.00
60345;BME280;46188;52.324;8.032;2023-03-02T08:35:29;101382.19;;;0.82;100.00
60345;BME280;46188;52.324;8.032;2023-03-02T08:37:56;101381.69;;;0.88;100.00
60345;BME280;46188;52.324;8.032;2023-03-02T08:40:25;101387.38;;;0.82;100.00
60345;BME280;46188;52.324;8.032;2023-03-02T08:42:51;101396.25;;;0.72;100.00
60345;BME280;46188;52.324;8.032;2023-03-02T08:45:22;101395.25;;;0.70;100.00
60345;BME280;46188;52.324;8.032;2023-03-02T08:47:48;101397.75;;;0.82;100.00
60345;BME280;46188;52.324;8.032;2023-03-02T08:50:14;101397.63;;;0.94;100.00
60345;BME280;46188;52.324;8.032;2023-03-02T08:52:40;101387.25;;;0.94;100.00
60345;BME280;46188;52.324;8.032;2023-03-02T08:55:09;101386.69;;;0.85;100.00
60345;BME280;46188;52.324;8.032;2023-03-02T08:57:34;101393.28;;;0.93;100.00
60345;BME280;46188;52.324;8.032;2023-03-02T09:00:00;101390.88;;;1.09;100.00
60345;BME280;46188;52.324;8.032;2023-03-02T09:02:25;101388.06;;;1.06;100.00
60345;BME280;46188;52.324;8.032;2023-03-02T09:04:51;101388.06;;;1.06;100.00
60345;BME280;46188;52.324;8.032;2023-03-02T09:07:16;101382.88;;;1.06;100.00
60345;BME280;46188;52.324;8.032;2023-03-02T09:09:42;101379.56;;;1.09;100.00
60345;BME280;46188;52.324;8.032;2023-03-02T09:12:08;101386.56;;;1.10;100.00
60345;BME280;46188;52.324;8.032;2023-03-02T09:14:34;101388.44;;;1.26;100.00
60345;BME280;46188;52.324;8.032;2023-03-02T09:17:02;101387.63;;;1.27;100.00
60345;BME280;46188;52.324;8.032;2023-03-02T09:19:28;101383.13;;;1.38;100.00
60345;BME280;46188;52.324;8.032;2023-03-02T09:21:53;101380.81;;;1.42;100.00
60345;BME280;46188;52.324;8.032;2023-03-02T09:24:20;101382.28;;;1.39;100.00
60345;BME280;46188;52.324;8.032;2023-03-02T09:26:45;101389.19;;;1.38;100.00
60345;BME280;46188;52.324;8.032;2023-03-02T09:29:11;101392.91;;;1.28;100.00
60345;BME280;46188;52.324;8.032;2023-03-02T09:31:37;101391.13;;;1.27;100.00
60345;BME280;46188;52.324;8.032;2023-03-02T09:34:03;101391.00;;;1.39;100.00
60345;BME280;46188;52.324;8.032;2023-03-02T09:36:28;101392.19;;;1.44;100.00
60345;BME280;46188;52.324;8.032;2023-03-02T09:38:56;101398.56;;;1.50;100.00
60345;BME280;46188;52.324;8.032;2023-03-02T09:47:54;101394.72;;;1.29;100.00
60345;BME280;46188;52.324;8.032;2023-03-02T09:50:26;101390.00;;;1.37;100.00
60345;BME280;46188;52.324;8.032;2023-03-02T09:55:58;101403.81;;;1.64;100.00
60345;BME280;46188;52.324;8.032;2023-03-02T09:58:37;101404.22;;;1.71;100.00
60345;BME280;46188;52.324;8.032;2023-03-02T10:01:11;101408.88;;;1.76;100.00
60345;BME280;46188;52.324;8.032;2023-03-02T10:03:51;101406.38;;;1.78;100.00
60345;BME280;46188;52.324;8.032;2023-03-02T10:06:20;101401.03;;;1.61;100.00
60345;BME280;46188;52.324;8.032;2023-03-02T10:08:45;101404.22;;;1.71;100.00
60345;BME280;46188;52.324;8.032;2023-03-02T10:11:23;101403.56;;;1.75;100.00
60345;BME280;46188;52.324;8.032;2023-03-02T10:16:46;101403.97;;;1.81;100.00
60345;BME280;46188;52.324;8.032;2023-03-02T10:19:27;101410.69;;;1.77;100.00
60345;BME280;46188;52.324;8.032;2023-03-02T10:24:40;101404.97;;;1.98;100.00
60345;BME280;46188;52.324;8.032;2023-03-02T10:27:17;101408.88;;;2.34;100.00
60345;BME280;46188;52.324;8.032;2023-03-02T10:29:57;101399.84;;;2.43;100.00
60345;BME280;46188;52.324;8.032;2023-03-02T10:32:29;101399.56;;;2.38;100.00
60345;BME280;46188;52.324;8.032;2023-03-02T10:34:58;101394.13;;;2.94;100.00
60345;BME280;46188;52.324;8.032;2023-03-02T10:37:29;101400.16;;;2.93;100.00
60345;BME280;46188;52.324;8.032;2023-03-02T10:39:55;101396.25;;;2.40;100.00
60345;BME280;46188;52.324;8.032;2023-03-02T10:44:52;101395.34;;;2.25;100.00
60345;BME280;46188;52.324;8.032;2023-03-02T10:47:28;101402.25;;;2.25;100.00
60345;BME280;46188;52.324;8.032;2023-03-02T10:49:56;101397.59;;;2.64;100.00
60345;BME280;46188;52.324;8.032;2023-03-02T10:52:24;101384.41;;;3.38;100.00
60345;BME280;46188;52.324;8.032;2023-03-02T10:55:04;101392.31;;;3.56;100.00
60345;BME280;46188;52.324;8.032;2023-03-02T10:57:35;101387.56;;;4.15;100.00
60345;BME280;46188;52.324;8.032;2023-03-02T11:00:22;101392.88;;;3.83;100.00
60345;BME280;46188;52.324;8.032;2023-03-02T11:02:50;101390.00;;;3.46;100.00
60345;BME280;46188;52.324;8.032;2023-03-02T11:07:51;101391.03;;;3.17;100.00
60345;BME280;46188;52.324;8.032;2023-03-02T11:10:20;101386.84;;;3.04;100.00
60345;BME280;46188;52.324;8.032;2023-03-02T11:12:48;101392.47;;;3.11;100.00
60345;BME280;46188;52.324;8.032;2023-03-02T11:15:26;101382.50;;;3.36;100.00
60345;BME280;46188;52.324;8.032;2023-03-02T11:20:48;101387.19;;;3.10;100.00
60345;BME280;46188;52.324;8.032;2023-03-02T11:23:55;101387.19;;;3.10;100.00
60345;BME280;46188;52.324;8.032;2023-03-02T11:26:24;101382.03;;;3.43;100.00
60345;BME280;46188;52.324;8.032;2023-03-02T11:29:03;101378.44;;;3.41;100.00
60345;BME280;46188;52.324;8.032;2023-03-02T11:34:26;101379.81;;;4.16;100.00
60345;BME280;46188;52.324;8.032;2023-03-02T11:37:21;101379.84;;;4.00;100.00
60345;BME280;46188;52.324;8.032;2023-03-02T11:39:58;101377.41;;;4.03;100.00
60345;BME280;46188;52.324;8.032;2023-03-02T11:44:54;101364.47;;;4.57;100.00
60345;BME280;46188;52.324;8.032;2023-03-02T11:47:19;101371.47;;;4.58;100.00
60345;BME280;46188;52.324;8.032;2023-03-02T11:49:56;101361.25;;;5.36;100.00
60345;BME280;46188;52.324;8.032;2023-03-02T11:52:26;101364.22;;;6.01;100.00
60345;BME280;46188;52.324;8.032;2023-03-02T11:54:55;101359.44;;;6.96;99.66
60345;BME280;46188;52.324;8.032;2023-03-02T11:59:52;101355.94;;;7.41;90.29
60345;BME280;46188;52.324;8.032;2023-03-02T12:02:18;101356.16;;;7.71;89.67
60345;BME280;46188;52.324;8.032;2023-03-02T12:04:46;101352.78;;;6.60;92.83
60345;BME280;46188;52.324;8.032;2023-03-02T12:07:21;101355.28;;;6.17;96.51
60345;BME280;46188;52.324;8.032;2023-03-02T12:09:59;101352.75;;;6.18;97.50
60345;BME280;46188;52.324;8.032;2023-03-02T12:14:51;101339.34;;;5.71;98.07
60345;BME280;46188;52.324;8.032;2023-03-02T12:22:32;101329.44;;;6.24;94.59
60345;BME280;46188;52.324;8.032;2023-03-02T12:27:26;101328.94;;;6.98;89.48
60345;BME280;46188;52.324;8.032;2023-03-02T12:33:17;101313.00;;;7.38;85.57
60345;BME280;46188;52.324;8.032;2023-03-02T12:35:43;101300.47;;;7.31;85.56
60345;BME280;46188;52.324;8.032;2023-03-02T12:38:29;101298.91;;;6.67;87.36
60345;BME280;46188;52.324;8.032;2023-03-02T12:43:33;101300.84;;;6.29;89.86
60345;BME280;46188;52.324;8.032;2023-03-02T12:51:23;101291.41;;;5.14;97.80
60345;BME280;46188;52.324;8.032;2023-03-02T12:54:00;101296.25;;;4.87;100.00
60345;BME280;46188;52.324;8.032;2023-03-02T12:56:26;101281.50;;;5.07;99.51
60345;BME280;46188;52.324;8.032;2023-03-02T12:58:53;101279.09;;;5.11;98.79
60345;BME280;46188;52.324;8.032;2023-03-02T13:01:32;101272.09;;;5.30;99.08
60345;BME280;46188;52.324;8.032;2023-03-02T13:03:58;101263.63;;;5.96;95.53
60345;BME280;46188;52.324;8.032;2023-03-02T13:06:27;101269.56;;;6.11;93.18
60345;BME280;46188;52.324;8.032;2023-03-02T13:08:55;101267.94;;;6.15;92.17
60345;BME280;46188;52.324;8.032;2023-03-02T13:11:32;101264.06;;;5.85;94.51
60345;BME280;46188;52.324;8.032;2023-03-02T13:13:58;101258.69;;;6.44;91.73
60345;BME280;46188;52.324;8.032;2023-03-02T13:16:30;101251.50;;;6.40;90.54
60345;BME280;46188;52.324;8.032;2023-03-02T13:18:59;101252.66;;;6.25;92.21
60345;BME280;46188;52.324;8.032;2023-03-02T13:21:36;101248.63;;;6.34;92.14
60345;BME280;46188;52.324;8.032;2023-03-02T13:24:03;101246.66;;;6.49;90.00
60345;BME280;46188;52.324;8.032;2023-03-02T13:26:57;101258.16;;;6.53;90.72
60345;BME280;46188;52.324;8.032;2023-03-02T13:29:27;101252.50;;;6.64;90.01
60345;BME280;46188;52.324;8.032;2023-03-02T13:31:53;101243.38;;;6.55;89.53
60345;BME280;46188;52.324;8.032;2023-03-02T13:34:21;101243.75;;;5.99;91.78
60345;BME280;46188;52.324;8.032;2023-03-02T13:36:48;101244.16;;;5.89;93.49
60345;BME280;46188;52.324;8.032;2023-03-02T13:39:24;101237.69;;;6.00;92.07
60345;BME280;46188;52.324;8.032;2023-03-02T13:42:01;101241.22;;;6.01;92.03
60345;BME280;46188;52.324;8.032;2023-03-02T13:44:32;101234.44;;;5.65;94.01
60345;BME280;46188;52.324;8.032;2023-03-02T13:46:59;101227.94;;;5.96;93.98